Time;durP1;ratioP1;P1;durP2;ratioP2;P2;SDS_P1;SDS_P2;PMS_P1;PMS_P2;Temp;Humidity;BMP_temperature;BMP_pressure;BME280_temperature;BME280_humidity;BME280_pressure;Samples;Min_cycle;Max_cycle;Signal;HPM_P1;HPM_P2
2022/07/13 00:01:37;;;;;;;8.70;3.70;;;;;;;13.46;100.00;97843.75;5117688;27;20024;-81
2022/07/13 00:04:02;;;;;;;10.30;4.38;;;;;;;13.36;100.00;97842.63;5095776;27;20033;-81
2022/07/13 00:06:28;;;;;;;3.95;3.45;;;;;;;13.32;100.00;97841.16;5118790;27;20026;-81
2022/07/13 00:08:53;;;;;;;4.65;3.50;;;;;;;13.30;100.00;97845.75;5095061;28;20028;-81
2022/07/13 00:11:19;;;;;;;6.38;3.25;;;;;;;13.34;100.00;97850.81;5097999;27;20379;-81
2022/07/13 00:13:45;;;;;;;5.43;3.97;;;;;;;13.26;100.00;97844.25;5099479;28;20059;-81
2022/07/13 00:16:10;;;;;;;5.60;3.75;;;;;;;13.28;100.00;97853.06;5129111;27;20076;-80
2022/07/13 00:18:36;;;;;;;4.10;3.65;;;;;;;13.30;100.00;97854.69;5128882;27;20024;-81
2022/07/13 00:21:01;;;;;;;6.05;3.55;;;;;;;13.24;100.00;97867.66;5129297;27;20055;-81
2022/07/13 00:23:27;;;;;;;6.20;3.97;;;;;;;13.19;100.00;97859.06;5111940;28;20066;-81
2022/07/13 00:25:52;;;;;;;7.05;3.67;;;;;;;13.18;100.00;97854.63;5112066;28;20035;-81
2022/07/13 00:28:18;;;;;;;5.63;3.90;;;;;;;13.10;100.00;97847.13;5093555;28;20122;-81
2022/07/13 00:30:43;;;;;;;5.82;4.18;;;;;;;13.03;100.00;97854.69;5094826;28;20038;-81
2022/07/13 00:33:09;;;;;;;7.72;4.10;;;;;;;12.99;100.00;97855.84;5094513;28;20031;-81
2022/07/13 00:35:35;;;;;;;6.53;3.97;;;;;;;12.98;100.00;97853.28;5094780;28;20045;-81
2022/07/13 00:38:00;;;;;;;6.20;3.70;;;;;;;12.90;100.00;97860.97;5094837;28;20028;-82
2022/07/13 00:40:26;;;;;;;7.30;4.22;;;;;;;12.93;100.00;97858.94;5094318;28;20146;-82
2022/07/13 00:42:52;;;;;;;4.25;3.58;;;;;;;12.84;100.00;97850.63;5111668;28;20028;-82
2022/07/13 00:45:18;;;;;;;6.90;3.72;;;;;;;12.86;100.00;97862.13;5130135;27;20479;-81
2022/07/13 00:47:44;;;;;;;6.53;4.40;;;;;;;12.85;100.00;97852.34;5097153;28;20032;-81
2022/07/13 00:50:10;;;;;;;9.05;4.20;;;;;;;12.77;100.00;97854.66;5128807;27;20029;-81
2022/07/13 00:52:36;;;;;;;6.85;3.92;;;;;;;12.81;100.00;97859.75;5119184;27;20467;-82
2022/07/13 00:55:03;;;;;;;4.88;3.80;;;;;;;12.81;100.00;97854.38;5111611;28;20489;-82
2022/07/13 00:57:32;;;;;;;6.55;4.10;;;;;;;12.80;100.00;97849.97;5094270;28;20505;-81
2022/07/13 00:59:58;;;;;;;5.88;4.00;;;;;;;12.84;100.00;97856.00;5128423;27;20028;-82
2022/07/13 01:02:24;;;;;;;5.95;3.72;;;;;;;12.88;100.00;97853.03;5094002;28;20024;-82
2022/07/13 01:04:49;;;;;;;4.22;3.60;;;;;;;12.81;100.00;97846.31;5094219;28;20019;-82
2022/07/13 01:07:15;;;;;;;6.03;3.50;;;;;;;12.72;100.00;97854.13;5128847;27;20111;-82
2022/07/13 01:09:41;;;;;;;10.15;4.10;;;;;;;12.60;100.00;97853.09;5115157;27;20019;-82
2022/07/13 01:12:07;;;;;;;6.50;3.58;;;;;;;12.60;100.00;97845.06;5094013;28;20028;-82
2022/07/13 01:14:33;;;;;;;5.53;3.75;;;;;;;12.58;100.00;97843.44;5127890;27;20088;-82
2022/07/13 01:16:59;;;;;;;5.00;3.70;;;;;;;12.57;100.00;97841.72;5127935;27;20027;-80
2022/07/13 01:19:25;;;;;;;9.43;4.47;;;;;;;12.59;100.00;97834.41;5127742;27;20031;-81
2022/07/13 01:22:02;;;;;;;5.93;3.90;;;;;;;12.58;100.00;97840.75;5128030;27;20076;-81
2022/07/13 01:24:29;;;;;;;4.68;3.70;;;;;;;12.60;100.00;97841.50;5127887;27;20024;-81
2022/07/13 01:26:55;;;;;;;5.97;4.40;;;;;;;12.60;100.00;97844.19;5093799;28;20344;-82
2022/07/13 01:29:20;;;;;;;6.20;3.90;;;;;;;12.50;100.00;97836.75;5110483;28;20031;-81
2022/07/13 01:31:46;;;;;;;10.85;3.90;;;;;;;12.54;100.00;97839.22;5110700;28;20079;-81
2022/07/13 01:34:11;;;;;;;7.25;3.83;;;;;;;12.46;100.00;97835.22;5093702;28;20074;-81
2022/07/13 01:36:38;;;;;;;6.55;3.70;;;;;;;12.50;100.00;97847.47;5093508;28;20035;-81
2022/07/13 01:39:04;;;;;;;7.82;3.90;;;;;;;12.34;100.00;97838.69;5093426;28;20035;-81
2022/07/13 01:41:30;;;;;;;4.65;3.78;;;;;;;12.33;100.00;97838.81;5127317;27;20185;-82
2022/07/13 01:43:57;;;;;;;5.63;4.13;;;;;;;12.29;100.00;97854.22;5094200;28;20118;-81
2022/07/13 01:46:26;;;;;;;7.35;3.92;;;;;;;12.30;100.00;97841.69;5096767;28;20454;-81
2022/07/13 01:48:54;;;;;;;5.18;3.80;;;;;;;12.29;100.00;97848.84;5096924;28;20078;-81
2022/07/13 01:51:19;;;;;;;9.30;4.20;;;;;;;12.07;100.00;97840.44;5093780;28;20034;-81
2022/07/13 01:53:45;;;;;;;5.10;4.10;;;;;;;12.04;100.00;97840.63;5110671;28;20028;-81
2022/07/13 01:56:11;;;;;;;8.43;4.10;;;;;;;12.07;100.00;97829.72;5093284;28;20023;-81
2022/07/13 01:58:36;;;;;;;4.50;3.70;;;;;;;12.11;100.00;97835.75;5111950;27;20548;-81
2022/07/13 02:01:02;;;;;;;4.88;3.85;;;;;;;12.07;100.00;97843.13;5112693;27;20111;-82
2022/07/13 02:03:29;;;;;;;6.75;3.85;;;;;;;12.05;100.00;97831.66;5110212;28;20134;-81
2022/07/13 02:05:56;;;;;;;6.70;4.07;;;;;;;12.06;100.00;97836.03;5093158;28;20023;-82
2022/07/13 02:08:22;;;;;;;5.97;4.13;;;;;;;11.98;100.00;97834.81;5093102;28;20038;-82
2022/07/13 02:10:47;;;;;;;5.47;3.88;;;;;;;12.07;100.00;97844.94;5093050;28;20035;-82
2022/07/13 02:13:13;;;;;;;6.38;3.85;;;;;;;12.01;100.00;97846.19;5093062;28;20040;-81
2022/07/13 02:15:40;;;;;;;7.82;4.00;;;;;;;12.03;100.00;97846.13;5127167;27;20405;-82
2022/07/13 02:18:06;;;;;;;5.78;4.32;;;;;;;11.94;100.00;97848.41;5093078;28;20501;-80
2022/07/13 02:20:31;;;;;;;5.45;4.07;;;;;;;11.99;100.00;97845.44;5110468;28;20440;-82
2022/07/13 02:22:57;;;;;;;11.48;4.05;;;;;;;11.90;100.00;97846.84;5113766;28;20031;-81
2022/07/13 02:25:22;;;;;;;7.18;4.10;;;;;;;11.74;100.00;97835.38;5109984;28;20538;-81
2022/07/13 02:27:48;;;;;;;13.48;4.30;;;;;;;11.66;100.00;97836.78;5112667;28;20031;-81
2022/07/13 02:30:15;;;;;;;7.93;4.32;;;;;;;11.56;100.00;97841.84;5096511;28;20103;-82
2022/07/13 02:32:42;;;;;;;6.40;4.18;;;;;;;11.53;100.00;97841.16;5096361;28;20038;-81
2022/07/13 02:35:08;;;;;;;7.20;4.07;;;;;;;11.39;100.00;97845.53;5112357;28;20053;-81
2022/07/13 02:37:34;;;;;;;5.05;4.20;;;;;;;11.40;100.00;97839.25;5127324;27;20034;-81
2022/07/13 02:39:59;;;;;;;5.68;4.28;;;;;;;11.27;100.00;97843.59;5127618;27;20491;-81
2022/07/13 02:42:25;;;;;;;7.32;3.97;;;;;;;11.21;100.00;97841.28;5092751;28;20073;-82
2022/07/13 02:44:52;;;;;;;5.20;4.05;;;;;;;11.23;100.00;97843.88;5126870;27;20487;-81
2022/07/13 02:47:17;;;;;;;6.93;4.25;;;;;;;11.22;100.00;97837.69;5126734;28;20129;-82
2022/07/13 02:49:43;;;;;;;6.15;3.80;;;;;;;11.19;100.00;97845.03;5092679;28;20051;-82
2022/07/13 02:52:09;;;;;;;9.90;4.63;;;;;;;11.23;100.00;97834.03;5113520;28;20019;-82
2022/07/13 02:54:34;;;;;;;4.80;3.75;;;;;;;11.18;100.00;97844.16;5130632;27;20028;-82
2022/07/13 02:57:00;;;;;;;7.57;4.50;;;;;;;11.20;100.00;97844.91;5130592;27;20039;-82
2022/07/13 02:59:25;;;;;;;5.75;4.28;;;;;;;11.17;100.00;97838.88;5096452;28;20035;-82
2022/07/13 03:01:51;;;;;;;6.60;4.38;;;;;;;11.13;100.00;97843.59;5096458;28;20032;-82
2022/07/13 03:04:17;;;;;;;9.05;4.72;;;;;;;11.19;100.00;97853.06;5096569;28;20033;-81
2022/07/13 03:06:42;;;;;;;8.95;4.85;;;;;;;11.09;100.00;97850.06;5114206;28;20050;-82
2022/07/13 03:09:08;;;;;;;5.43;4.50;;;;;;;11.24;100.00;97861.66;5096272;28;20031;-82
2022/07/13 03:11:33;;;;;;;5.68;4.65;;;;;;;11.26;100.00;97843.69;5113424;28;20066;-82
2022/07/13 03:14:01;;;;;;;6.97;4.93;;;;;;;11.31;100.00;97842.47;5131438;27;20032;-82
2022/07/13 03:16:27;;;;;;;7.85;4.53;;;;;;;11.43;100.00;97843.53;5097684;28;20034;-82
2022/07/13 03:18:52;;;;;;;5.22;4.25;;;;;;;11.50;100.00;97844.03;5096526;27;20027;-82
2022/07/13 03:21:19;;;;;;;7.10;4.25;;;;;;;11.53;100.00;97841.16;5098685;28;20561;-82
2022/07/13 03:23:45;;;;;;;12.93;4.43;;;;;;;11.53;100.00;97830.47;5096617;28;20047;-82
2022/07/13 03:26:11;;;;;;;8.15;4.63;;;;;;;11.44;100.00;97832.72;5095968;28;20399;-82
2022/07/13 03:28:36;;;;;;;8.82;4.30;;;;;;;11.58;100.00;97837.25;5096038;28;20031;-82
2022/07/13 03:31:02;;;;;;;7.78;4.05;;;;;;;11.64;100.00;97849.41;5130112;27;20084;-82
2022/07/13 03:33:27;;;;;;;10.82;4.75;;;;;;;11.68;100.00;97841.09;5096008;28;20036;-82
2022/07/13 03:35:54;;;;;;;5.10;4.03;;;;;;;11.62;100.00;97838.78;5096078;28;20039;-82
2022/07/13 03:38:20;;;;;;;8.43;3.90;;;;;;;11.63;100.00;97840.50;5130773;27;20024;-82
2022/07/13 03:40:46;;;;;;;6.93;3.90;;;;;;;11.77;100.00;97845.06;5130151;27;20036;-82
2022/07/13 03:43:11;;;;;;;4.80;3.90;;;;;;;11.83;100.00;97850.91;5129919;27;20035;-82
2022/07/13 03:45:37;;;;;;;5.97;3.85;;;;;;;11.81;100.00;97852.78;5112995;28;20023;-82
2022/07/13 03:48:31;;;;;;;;;;;;;;;;;;;;;
2022/07/13 03:51:02;;;;;;;10.60;3.92;;;;;;;11.78;100.00;97836.06;5115173;27;20024;-81
2022/07/13 03:53:28;;;;;;;5.35;4.05;;;;;;;11.74;100.00;97834.53;5110613;28;20031;-82
2022/07/13 03:55:53;;;;;;;7.72;3.72;;;;;;;11.83;100.00;97844.66;5112499;28;20077;-82
2022/07/13 03:58:19;;;;;;;9.57;4.38;;;;;;;11.96;100.00;97840.28;5096018;28;20028;-79
2022/07/13 04:00:44;;;;;;;10.38;5.43;;;;;;;12.08;100.00;97846.69;5095860;28;20051;-81
2022/07/13 04:03:10;;;;;;;17.58;6.18;;;;;;;12.17;100.00;97838.91;5114214;27;20035;-82
2022/07/13 04:05:35;;;;;;;12.73;6.30;;;;;;;12.34;100.00;97852.09;5097040;28;20051;-82
2022/07/13 04:08:01;;;;;;;9.15;5.90;;;;;;;12.43;100.00;97840.78;5095843;28;20023;-82
2022/07/13 04:10:27;;;;;;;15.23;6.80;;;;;;;12.66;100.00;97857.22;5095538;28;20030;-82
2022/07/13 04:12:52;;;;;;;21.52;6.78;;;;;;;12.68;100.00;97844.53;5095743;28;20039;-82
2022/07/13 04:15:17;;;;;;;;;;;;;;;12.82;100.00;97857.94;5129538;27;20043;-82
2022/07/13 04:17:43;;;;;;;10.77;5.80;;;;;;;12.93;100.00;97866.13;5095156;28;19976;-82
2022/07/13 04:20:10;;;;;;;9.43;5.20;;;;;;;13.07;100.00;97867.91;5129596;27;20475;-82
2022/07/13 04:22:35;;;;;;;10.02;5.22;;;;;;;13.05;100.00;97865.31;5094905;28;20384;-82
2022/07/13 04:25:04;;;;;;;18.85;6.93;;;;;;;13.07;100.00;97865.22;5129366;27;20020;-81
2022/07/13 04:27:30;;;;;;;13.95;5.82;;;;;;;13.01;100.00;97858.44;5128749;27;20050;-81
2022/07/13 04:29:56;;;;;;;29.40;10.15;;;;;;;13.25;100.00;97867.56;5111932;28;20024;-80
2022/07/13 04:32:21;;;;;;;11.80;5.57;;;;;;;13.21;100.00;97854.44;5111724;28;20050;-79
2022/07/13 04:34:47;;;;;;;15.20;8.85;;;;;;;13.38;100.00;97872.97;5094365;28;20036;-80
2022/07/13 04:37:13;;;;;;;12.35;5.60;;;;;;;13.34;100.00;97866.94;5094610;28;20055;-80
2022/07/13 04:39:39;;;;;;;9.07;4.53;;;;;;;13.36;100.00;97864.13;5129887;27;20036;-81
2022/07/13 04:42:05;;;;;;;9.27;6.03;;;;;;;13.46;100.00;97865.25;5100106;28;20114;-79
2022/07/13 04:44:30;;;;;;;18.42;5.03;;;;;;;13.57;100.00;97879.66;5128934;27;20115;-83
2022/07/13 04:46:56;;;;;;;9.13;4.68;;;;;;;13.64;100.00;97869.34;5101527;28;20027;-82
2022/07/13 04:49:22;;;;;;;5.75;4.75;;;;;;;13.83;100.00;97882.38;5095129;27;20398;-81
2022/07/13 04:51:48;;;;;;;8.68;3.95;;;;;;;13.88;100.00;97888.28;5095961;28;20024;-82
2022/07/13 04:54:20;;;;;;;12.10;5.60;;;;;;;13.92;100.00;97876.34;5094704;28;20028;-81
2022/07/13 04:56:47;;;;;;;9.50;4.63;;;;;;;14.53;100.00;97879.13;5128498;27;20030;-81
2022/07/13 04:59:12;;;;;;;9.73;4.45;;;;;;;15.25;97.49;97869.28;5095422;28;20035;-80
2022/07/13 05:01:40;;;;;;;7.15;4.70;;;;;;;15.59;93.58;97876.53;5096234;27;20498;-82
2022/07/13 05:04:06;;;;;;;13.07;4.80;;;;;;;16.67;87.73;97859.88;5098088;27;20026;-80
2022/07/13 05:06:32;;;;;;;11.73;4.22;;;;;;;18.37;78.34;97867.78;5098190;28;20394;-80
2022/07/13 05:08:58;;;;;;;7.57;3.65;;;;;;;19.73;70.13;97855.28;5114460;27;20054;-80
2022/07/13 05:11:24;;;;;;;13.18;4.47;;;;;;;20.92;63.62;97842.75;5116361;27;20032;-82
2022/07/13 05:13:50;;;;;;;6.40;4.07;;;;;;;21.69;59.91;97853.13;5094585;27;20027;-81
2022/07/13 05:16:16;;;;;;;25.42;7.03;;;;;;;21.98;57.88;97847.44;5100621;28;20069;-81
2022/07/13 05:18:41;;;;;;;16.10;6.18;;;;;;;22.00;57.08;97854.44;5094103;28;20051;-81
2022/07/13 05:21:07;;;;;;;5.40;3.95;;;;;;;22.79;54.86;97835.19;5110680;28;20039;-82
2022/07/13 05:23:34;;;;;;;7.15;3.65;;;;;;;23.32;52.38;97834.81;5111795;28;20023;-82
2022/07/13 05:26:00;;;;;;;6.13;3.25;;;;;;;23.71;51.09;97837.84;5113750;27;20023;-82
2022/07/13 05:28:26;;;;;;;10.48;3.83;;;;;;;24.43;49.83;97842.41;5099057;28;20412;-82
2022/07/13 05:30:51;;;;;;;14.10;9.88;;;;;;;25.79;47.63;97836.50;5095844;27;20032;-83
2022/07/13 05:33:19;;;;;;;15.15;7.80;;;;;;;26.41;45.06;97828.94;5102899;27;20468;-81
2022/07/13 05:35:45;;;;;;;43.78;17.10;;;;;;;27.40;43.17;97821.03;5096645;28;20170;-81
2022/07/13 05:38:10;;;;;;;10.35;4.97;;;;;;;27.83;41.37;97813.69;5112183;27;20111;-83
2022/07/13 05:40:36;;;;;;;7.20;4.00;;;;;;;28.53;40.06;97815.56;5107178;28;20050;-82
2022/07/13 05:43:02;;;;;;;6.70;4.28;;;;;;;29.34;38.78;97814.78;5093501;28;20108;-82
2022/07/13 05:45:27;;;;;;;32.50;19.00;;;;;;;30.17;37.78;97816.25;5093601;28;20085;-82
2022/07/13 05:47:53;;;;;;;19.40;11.88;;;;;;;30.06;37.18;97808.59;5095207;27;20047;-82
2022/07/13 05:50:18;;;;;;;6.93;3.67;;;;;;;30.55;36.18;97792.47;5096893;27;20039;-83
2022/07/13 05:52:44;;;;;;;9.25;3.55;;;;;;;31.38;34.84;97799.00;5096987;28;20031;-83
2022/07/13 05:55:10;;;;;;;8.48;3.30;;;;;;;31.90;34.11;97792.34;5099633;27;20083;-83
2022/07/13 05:57:37;;;;;;;8.18;3.60;;;;;;;32.44;32.69;97794.50;5108351;27;20130;-83
2022/07/13 06:00:05;;;;;;;12.23;6.00;;;;;;;32.24;33.31;97791.03;5121069;27;20026;-81
2022/07/13 06:02:31;;;;;;;9.38;4.05;;;;;;;32.45;32.93;97795.34;5099616;28;20533;-82
2022/07/13 06:04:57;;;;;;;12.75;7.90;;;;;;;33.09;32.31;97789.41;5111728;28;20054;-83
2022/07/13 06:07:23;;;;;;;12.57;3.63;;;;;;;33.61;31.49;97783.19;5094216;28;20055;-81
2022/07/13 06:09:49;;;;;;;10.07;3.97;;;;;;;34.16;30.55;97783.84;5093096;28;20074;-81
2022/07/13 06:12:15;;;;;;;14.60;4.70;;;;;;;34.63;29.83;97784.78;5092673;28;20388;-82
2022/07/13 06:14:40;;;;;;;6.82;3.75;;;;;;;35.19;29.73;97766.59;5092634;28;20028;-81
2022/07/13 06:17:06;;;;;;;5.28;3.40;;;;;;;35.54;29.13;97761.75;5095161;27;20025;-81
2022/07/13 06:19:33;;;;;;;9.13;3.30;;;;;;;35.71;28.55;97764.63;5096140;27;20046;-81
2022/07/13 06:21:59;;;;;;;9.82;3.40;;;;;;;33.99;29.85;97768.94;5096552;28;20042;-82
2022/07/13 06:24:25;;;;;;;17.30;9.05;;;;;;;34.73;29.54;97768.31;5094482;28;20115;-82
2022/07/13 06:26:50;;;;;;;10.23;3.80;;;;;;;35.01;28.41;97762.00;5130547;27;20551;-83
2022/07/13 06:29:16;;;;;;;17.63;8.88;;;;;;;35.88;27.92;97763.53;5097663;27;20039;-82
2022/07/13 06:31:41;;;;;;;12.55;3.72;;;;;;;36.37;27.52;97753.56;5118941;27;20023;-82
2022/07/13 06:34:07;;;;;;;20.15;8.95;;;;;;;34.97;28.70;97757.19;5130933;27;20035;-82
2022/07/13 06:36:34;;;;;;;12.00;4.00;;;;;;;35.34;28.16;97761.34;5133773;27;20027;-82
2022/07/13 06:39:00;;;;;;;13.27;3.67;;;;;;;35.97;27.67;97755.63;5100208;28;20020;-81
2022/07/13 06:41:26;;;;;;;20.33;8.07;;;;;;;36.14;28.29;97752.88;5096530;28;20462;-82
2022/07/13 06:43:51;;;;;;;12.45;3.50;;;;;;;35.20;28.36;97754.34;5130973;27;20031;-83
2022/07/13 06:46:17;;;;;;;9.93;3.20;;;;;;;35.93;27.40;97745.25;5133635;27;20027;-83
2022/07/13 06:48:42;;;;;;;8.93;2.92;;;;;;;36.78;26.93;97746.69;5107719;28;20472;-82
2022/07/13 06:51:08;;;;;;;9.07;3.30;;;;;;;36.49;26.94;97745.09;5113623;28;20062;-83
2022/07/13 06:53:33;;;;;;;15.43;6.05;;;;;;;36.08;27.65;97753.91;5113538;28;20139;-83
2022/07/13 06:55:59;;;;;;;16.23;5.95;;;;;;;35.98;27.57;97740.59;5113721;28;20106;-83
2022/07/13 06:58:24;;;;;;;12.52;7.05;;;;;;;36.35;27.51;97750.19;5131020;27;20054;-83
2022/07/13 07:00:50;;;;;;;15.10;7.55;;;;;;;36.63;26.71;97745.63;5096277;28;20471;-83
2022/07/13 07:03:18;;;;;;;23.23;6.07;;;;;;;36.43;26.22;97735.81;5096407;28;20092;-83
2022/07/13 07:05:43;;;;;;;8.10;3.00;;;;;;;36.78;25.30;97727.16;5132610;27;20092;-83
2022/07/13 07:08:09;;;;;;;6.78;2.60;;;;;;;36.72;24.72;97722.63;5115641;27;20028;-83
2022/07/13 07:10:34;;;;;;;6.20;2.20;;;;;;;37.47;22.94;97727.56;5130654;27;20066;-82
2022/07/13 07:13:00;;;;;;;3.28;1.63;;;;;;;36.72;23.84;97722.63;5096305;28;20042;-83
2022/07/13 07:15:25;;;;;;;6.20;1.90;;;;;;;37.20;23.12;97719.09;5099549;27;20482;-83
2022/07/13 07:17:51;;;;;;;8.95;2.20;;;;;;;38.05;22.04;97725.94;5098340;28;20498;-83
2022/07/13 07:20:17;;;;;;;2.33;1.50;;;;;;;38.55;21.04;97726.34;5113031;28;20035;-82
2022/07/13 07:22:44;;;;;;;3.45;1.77;;;;;;;38.36;21.37;97722.31;5096593;28;20122;-85
2022/07/13 07:25:10;;;;;;;2.97;1.80;;;;;;;38.67;21.76;97726.97;5130719;27;20016;-83
2022/07/13 07:27:36;;;;;;;7.20;1.83;;;;;;;38.92;21.21;97721.56;5130228;27;20012;-83
2022/07/13 07:30:02;;;;;;;6.47;1.58;;;;;;;39.14;21.23;97727.00;5112964;28;20019;-83
2022/07/13 07:32:28;;;;;;;6.97;2.05;;;;;;;38.81;21.76;97724.59;5112783;28;20472;-83
2022/07/13 07:34:53;;;;;;;4.50;1.95;;;;;;;39.45;20.65;97725.19;5095646;28;20044;-83
2022/07/13 07:37:20;;;;;;;6.50;2.13;;;;;;;38.02;22.21;97729.25;5097199;27;20028;-83
2022/07/13 07:39:46;;;;;;;5.47;1.95;;;;;;;38.18;21.33;97723.50;5116379;27;20098;-83
2022/07/13 07:42:12;;;;;;;8.45;2.65;;;;;;;38.51;21.09;97725.22;5129957;27;20093;-83
2022/07/13 07:44:38;;;;;;;4.47;2.03;;;;;;;38.77;21.33;97724.25;5129900;27;20482;-83
2022/07/13 07:47:03;;;;;;;4.28;1.92;;;;;;;39.22;21.05;97731.25;5095579;28;20051;-82
2022/07/13 07:49:29;;;;;;;6.38;1.30;;;;;;;39.24;20.14;97706.63;5129725;27;20124;-83
2022/07/13 07:51:54;;;;;;;5.70;1.65;;;;;;;40.07;20.01;97717.50;5129632;27;20027;-84
2022/07/13 07:54:20;;;;;;;5.38;1.23;;;;;;;40.56;19.21;97709.41;5112639;28;20498;-85
2022/07/13 07:56:45;;;;;;;3.20;1.35;;;;;;;40.31;20.04;97714.16;5129726;27;20186;-83
2022/07/13 07:59:12;;;;;;;2.05;1.55;;;;;;;39.17;20.61;97708.81;5129485;27;20039;-83
2022/07/13 08:01:38;;;;;;;1.55;1.08;;;;;;;39.20;20.05;97689.50;5118073;27;20019;-83
2022/07/13 08:04:03;;;;;;;2.47;1.27;;;;;;;38.50;20.55;97709.53;5131177;27;20023;-83
2022/07/13 08:06:29;;;;;;;7.78;2.25;;;;;;;38.58;20.82;97719.41;5098812;27;20039;-83
2022/07/13 08:08:55;;;;;;;5.85;4.35;;;;;;;38.54;21.26;97716.28;5099161;28;20036;-83
2022/07/13 08:11:20;;;;;;;4.18;1.77;;;;;;;39.21;20.39;97695.94;5095253;28;20434;-83
2022/07/13 08:13:46;;;;;;;6.68;1.70;;;;;;;37.92;21.26;97700.13;5112393;28;20079;-83
2022/07/13 08:16:13;;;;;;;2.85;1.42;;;;;;;38.21;21.36;97703.41;5095288;28;20821;-82
2022/07/13 08:18:39;;;;;;;5.13;1.67;;;;;;;39.61;20.70;97707.31;5112287;28;20076;-84
2022/07/13 08:21:05;;;;;;;3.35;1.10;;;;;;;38.34;21.13;97702.97;5130091;27;20023;-83
2022/07/13 08:26:15;;;;;;;6.57;2.17;;;;;;;39.01;20.64;97708.75;5115351;27;20034;-83
2022/07/13 08:28:40;;;;;;;3.05;1.10;;;;;;;38.40;20.45;97701.91;5130387;27;20031;-84
2022/07/13 08:31:07;;;;;;;2.72;1.10;;;;;;;37.03;21.87;97695.16;5129693;27;20055;-84
2022/07/13 08:39:00;;;;;;;2.05;1.25;;;;;;;32.77;26.28;97715.72;5121964;27;20049;-83
2022/07/13 08:41:26;;;;;;;4.88;1.70;;;;;;;32.60;26.90;97709.97;5128082;27;20051;-85
2022/07/13 08:43:51;;;;;;;5.47;1.42;;;;;;;35.18;23.57;97701.75;5104507;28;20055;-85
2022/07/13 08:46:20;;;;;;;4.43;1.23;;;;;;;36.97;21.85;97704.53;5096174;27;20038;-82
2022/07/13 08:48:47;;;;;;;11.88;1.42;;;;;;;38.51;20.57;97708.44;5097295;27;20091;-80
2022/07/13 08:51:13;;;;;;;1.88;1.38;;;;;;;39.09;19.67;97698.16;5114913;27;20417;-83
2022/07/13 08:53:38;;;;;;;1.83;0.95;;;;;;;39.85;19.46;97700.09;5128379;27;20205;-82
2022/07/13 08:56:04;;;;;;;1.45;1.00;;;;;;;38.04;20.73;97696.28;5111277;28;20027;-82
2022/07/13 08:58:30;;;;;;;2.92;1.52;;;;;;;36.73;21.26;97693.59;5110991;28;20042;-81
2022/07/13 09:00:56;;;;;;;5.90;1.55;;;;;;;36.07;21.79;97685.34;5111152;28;20078;-83
2022/07/13 09:03:21;;;;;;;2.38;0.98;;;;;;;35.81;22.17;97676.50;5127854;27;20027;-82
2022/07/13 09:05:47;;;;;;;3.22;1.52;;;;;;;35.31;23.29;97692.28;5098605;27;20122;-83
2022/07/13 09:08:13;;;;;;;3.17;1.15;;;;;;;36.01;21.67;97678.81;5098021;28;20035;-83
2022/07/13 09:10:52;;;;;;;2.33;1.05;;;;;;;37.65;20.64;97685.31;5095022;27;20505;-83
2022/07/13 09:13:44;;;;;;;3.15;1.00;;;;;;;38.25;19.70;97681.34;5110782;28;20027;-82
2022/07/13 09:16:27;;;;;;;3.97;1.40;;;;;;;39.45;18.96;97664.41;5089883;28;20095;-83
2022/07/13 09:19:00;;;;;;;7.00;1.35;;;;;;;37.90;19.66;97668.78;5131217;27;20020;-83
2022/07/13 09:21:26;;;;;;;15.55;1.67;;;;;;;36.72;21.04;97683.56;5097066;28;20024;-82
2022/07/13 09:23:58;;;;;;;10.40;2.50;;;;;;;36.57;21.11;97680.56;5097188;27;20546;-82
2022/07/13 09:26:45;;;;;;;3.85;1.67;;;;;;;37.62;20.59;97682.19;5096698;28;20479;-82
2022/07/13 09:29:13;;;;;;;3.60;1.73;;;;;;;38.44;19.40;97679.84;5105794;28;20024;-82
2022/07/13 09:32:10;;;;;;;6.82;2.17;;;;;;;38.91;18.87;97682.69;5095067;27;20028;-81
2022/07/13 09:34:51;;;;;;;7.53;1.13;;;;;;;37.89;19.74;97683.84;5085361;27;20043;-82
2022/07/13 09:37:19;;;;;;;3.15;1.15;;;;;;;38.58;19.75;97683.03;5110426;28;20487;-82
2022/07/13 09:40:06;;;;;;;2.47;1.08;;;;;;;37.11;20.36;97676.00;5130487;27;20099;-82
2022/07/13 09:42:42;;;;;;;6.20;1.20;;;;;;;37.23;19.94;97665.53;5095763;28;20471;-82
2022/07/13 09:47:57;;;;;;;6.68;1.30;;;;;;;38.43;20.39;97680.97;5110827;28;20341;-82
2022/07/13 09:50:40;;;;;;;3.28;1.10;;;;;;;35.18;22.42;97687.00;5127381;27;20363;-82
2022/07/13 09:53:25;;;;;;;5.50;1.30;;;;;;;32.69;24.58;97691.97;5093308;28;20027;-82
2022/07/13 09:55:52;;;;;;;4.78;1.27;;;;;;;31.41;25.60;97689.88;5128946;27;20122;-82
2022/07/13 09:58:29;;;;;;;7.30;1.63;;;;;;;30.80;26.65;97695.06;5097971;28;20031;-82
2022/07/13 10:00:56;;;;;;;3.83;1.80;;;;;;;31.00;26.58;97695.84;5093061;28;20446;-82
2022/07/13 10:03:23;;;;;;;3.35;1.30;;;;;;;32.89;24.20;97688.91;5127894;27;20027;-82
2022/07/13 10:05:53;;;;;;;6.10;1.40;;;;;;;34.97;22.71;97679.28;5130159;27;20030;-82
2022/07/13 10:08:19;;;;;;;10.10;1.60;;;;;;;36.01;22.06;97686.31;5098887;28;20435;-83
2022/07/13 10:10:45;;;;;;;4.30;3.17;;;;;;;37.40;20.79;97679.41;5128107;27;20126;-83
2022/07/13 10:13:12;;;;;;;3.78;0.95;;;;;;;38.13;20.22;97675.97;5114315;28;20213;-83
2022/07/13 10:15:38;;;;;;;3.20;1.70;;;;;;;38.98;19.12;97675.69;5097650;28;20036;-83
2022/07/13 10:18:09;;;;;;;2.58;0.90;;;;;;;39.48;18.34;97668.63;5128468;27;20556;-83
2022/07/13 10:20:36;;;;;;;2.78;1.20;;;;;;;39.98;18.77;97674.31;5093918;28;20383;-82
2022/07/13 10:23:01;;;;;;;1.67;1.10;;;;;;;40.23;18.10;97670.69;5110495;28;20023;-82
2022/07/13 10:25:42;;;;;;;1.38;0.95;;;;;;;40.46;18.21;97652.41;5093587;28;20030;-81
2022/07/13 10:28:09;;;;;;;2.97;1.93;;;;;;;40.26;18.34;97646.84;5095838;28;20080;-82
2022/07/13 10:30:34;;;;;;;3.05;1.30;;;;;;;38.90;18.61;97648.25;5116178;28;20027;-83
2022/07/13 10:33:17;;;;;;;0.80;0.80;;;;;;;38.73;18.95;97650.34;5093543;28;20107;-82
2022/07/13 10:35:48;;;;;;;2.15;1.30;;;;;;;40.20;18.20;97637.63;5110725;28;20031;-82
2022/07/13 10:38:15;;;;;;;2.67;1.45;;;;;;;40.64;18.03;97643.41;5093623;28;20463;-83
2022/07/13 10:40:40;;;;;;;2.38;0.93;;;;;;;37.93;19.19;97640.31;5110368;28;20071;-82
2022/07/13 10:43:06;;;;;;;6.15;1.73;;;;;;;38.43;19.05;97639.00;5093309;28;20134;-83
2022/07/13 10:45:32;;;;;;;1.50;0.98;;;;;;;38.70;18.88;97644.50;5110584;28;20030;-83
2022/07/13 10:47:58;;;;;;;7.25;1.42;;;;;;;38.08;18.71;97639.59;5111078;28;20084;-83
2022/07/13 10:50:26;;;;;;;4.57;1.10;;;;;;;38.28;19.70;97627.69;5100600;28;20042;-81
2022/07/13 10:52:52;;;;;;;3.40;0.98;;;;;;;39.56;17.70;97628.88;5127713;27;20505;-83
2022/07/13 10:55:27;;;;;;;10.85;1.50;;;;;;;39.37;18.43;97633.31;5095783;28;20051;-82
2022/07/13 10:57:53;;;;;;;2.55;1.30;;;;;;;40.12;17.71;97618.53;5105218;28;20102;-81
2022/07/13 11:00:19;;;;;;;1.33;1.10;;;;;;;37.67;19.28;97629.16;5096949;28;20133;-83
2022/07/13 11:02:54;;;;;;;4.28;0.93;;;;;;;35.68;20.66;97629.53;5094605;28;20483;-83
2022/07/13 11:05:30;;;;;;;10.70;1.33;;;;;;;35.56;21.26;97623.16;5115021;27;20470;-82
2022/07/13 11:07:56;;;;;;;1.42;1.10;;;;;;;36.40;21.04;97618.38;5096807;28;20039;-83
2022/07/13 11:10:25;;;;;;;2.95;1.20;;;;;;;36.67;20.10;97624.91;5093554;28;20084;-83
2022/07/13 11:13:13;;;;;;;1.75;1.13;;;;;;;34.72;21.34;97613.72;5130531;27;20110;-82
2022/07/13 11:15:52;;;;;;;1.73;0.80;;;;;;;35.41;21.36;97630.41;5131873;27;20114;-82
2022/07/13 11:18:33;;;;;;;1.55;1.35;;;;;;;35.06;21.51;97624.97;5102241;28;20406;-81
2022/07/13 11:20:59;;;;;;;;;;;;;;;35.99;20.76;97619.72;5130965;27;20456;-82
2022/07/13 11:26:29;;;;;;;1.98;0.82;;;;;;;38.38;18.98;97614.66;5114320;27;20058;-82
2022/07/13 11:29:13;;;;;;;3.22;0.70;;;;;;;38.71;18.98;97613.44;5117064;27;20039;-81
2022/07/13 11:31:39;;;;;;;2.20;0.68;;;;;;;37.92;18.91;97613.50;5100773;28;20398;-81
2022/07/13 11:34:06;;;;;;;8.77;1.10;;;;;;;37.78;18.89;97606.63;5130185;27;20031;-83
2022/07/13 11:36:32;;;;;;;3.78;0.98;;;;;;;38.34;18.90;97604.25;5100392;27;20146;-83
2022/07/13 11:38:58;;;;;;;4.75;1.27;;;;;;;39.66;18.21;97609.28;5097269;28;20100;-83
2022/07/13 11:41:24;;;;;;;1.73;0.80;;;;;;;40.22;17.63;97600.84;5113013;28;20491;-83
2022/07/13 11:43:56;;;;;;;0.73;0.70;;;;;;;39.75;17.51;97596.38;5114685;27;20467;-82